sensor_id;sensor_type;location;lat;lon;timestamp;temperature;humidity
12971;DHT22;6550;48.650;8.774;2023-04-03T00:01:04;8.40;99.90
12971;DHT22;6550;48.650;8.774;2023-04-03T00:03:31;8.10;99.90
12971;DHT22;6550;48.650;8.774;2023-04-03T00:05:58;8.10;99.90
12971;DHT22;6550;48.650;8.774;2023-04-03T00:08:26;8.10;99.90
12971;DHT22;6550;48.650;8.774;2023-04-03T00:10:52;8.00;99.90
12971;DHT22;6550;48.650;8.774;2023-04-03T00:13:22;8.10;99.90
12971;DHT22;6550;48.650;8.774;2023-04-03T00:15:51;8.10;99.90
12971;DHT22;6550;48.650;8.774;2023-04-03T00:18:18;8.10;99.90
12971;DHT22;6550;48.650;8.774;2023-04-03T00:20:45;8.10;99.90
12971;DHT22;6550;48.650;8.774;2023-04-03T00:23:17;8.20;99.90
12971;DHT22;6550;48.650;8.774;2023-04-03T00:25:43;8.00;99.90
12971;DHT22;6550;48.650;8.774;2023-04-03T00:28:10;8.00;99.90
12971;DHT22;6550;48.650;8.774;2023-04-03T00:30:37;8.00;99.90
12971;DHT22;6550;48.650;8.774;2023-04-03T00:33:04;8.00;99.90
12971;DHT22;6550;48.650;8.774;2023-04-03T00:35:32;8.00;99.90
12971;DHT22;6550;48.650;8.774;2023-04-03T00:38:03;8.00;99.90
12971;DHT22;6550;48.650;8.774;2023-04-03T00:40:34;8.00;99.90
12971;DHT22;6550;48.650;8.774;2023-04-03T00:43:02;8.00;99.90
12971;DHT22;6550;48.650;8.774;2023-04-03T00:45:37;8.00;99.90
12971;DHT22;6550;48.650;8.774;2023-04-03T00:48:08;8.40;99.90
12971;DHT22;6550;48.650;8.774;2023-04-03T00:50:41;7.90;99.90
12971;DHT22;6550;48.650;8.774;2023-04-03T00:53:17;7.90;99.90
12971;DHT22;6550;48.650;8.774;2023-04-03T00:55:46;7.90;99.90
12971;DHT22;6550;48.650;8.774;2023-04-03T00:58:17;9.20;99.90
12971;DHT22;6550;48.650;8.774;2023-04-03T01:00:50;7.90;99.90
12971;DHT22;6550;48.650;8.774;2023-04-03T01:03:24;7.90;99.90
12971;DHT22;6550;48.650;8.774;2023-04-03T01:05:54;7.90;99.90
12971;DHT22;6550;48.650;8.774;2023-04-03T01:08:21;8.10;99.90
12971;DHT22;6550;48.650;8.774;2023-04-03T01:10:48;7.80;99.90
12971;DHT22;6550;48.650;8.774;2023-04-03T01:13:32;7.80;99.90
12971;DHT22;6550;48.650;8.774;2023-04-03T01:16:03;7.80;99.90
12971;DHT22;6550;48.650;8.774;2023-04-03T01:18:32;7.70;99.90
12971;DHT22;6550;48.650;8.774;2023-04-03T01:23:58;7.70;99.90
12971;DHT22;6550;48.650;8.774;2023-04-03T01:26:27;7.70;99.90
12971;DHT22;6550;48.650;8.774;2023-04-03T01:28:55;8.40;99.90
12971;DHT22;6550;48.650;8.774;2023-04-03T01:31:28;7.60;99.90
12971;DHT22;6550;48.650;8.774;2023-04-03T01:33:59;7.70;99.90
12971;DHT22;6550;48.650;8.774;2023-04-03T01:36:29;7.70;99.90
12971;DHT22;6550;48.650;8.774;2023-04-03T01:38:59;7.60;99.90
12971;DHT22;6550;48.650;8.774;2023-04-03T01:41:31;7.60;99.90
12971;DHT22;6550;48.650;8.774;2023-04-03T01:44:00;7.60;99.90
12971;DHT22;6550;48.650;8.774;2023-04-03T01:46:27;7.60;99.90
12971;DHT22;6550;48.650;8.774;2023-04-03T01:48:54;7.60;99.90
12971;DHT22;6550;48.650;8.774;2023-04-03T01:51:23;7.60;99.90
12971;DHT22;6550;48.650;8.774;2023-04-03T01:53:50;8.10;99.90
12971;DHT22;6550;48.650;8.774;2023-04-03T01:56:19;7.50;99.90
12971;DHT22;6550;48.650;8.774;2023-04-03T01:58:46;7.70;99.90
12971;DHT22;6550;48.650;8.774;2023-04-03T02:01:13;7.50;99.90
12971;DHT22;6550;48.650;8.774;2023-04-03T02:03:42;7.50;99.90
12971;DHT22;6550;48.650;8.774;2023-04-03T02:06:09;7.40;99.90
12971;DHT22;6550;48.650;8.774;2023-04-03T02:08:38;7.40;99.90
12971;DHT22;6550;48.650;8.774;2023-04-03T02:11:08;7.40;99.90
12971;DHT22;6550;48.650;8.774;2023-04-03T02:13:34;7.40;99.90
12971;DHT22;6550;48.650;8.774;2023-04-03T02:16:09;7.30;99.90
12971;DHT22;6550;48.650;8.774;2023-04-03T02:18:37;7.30;99.90
12971;DHT22;6550;48.650;8.774;2023-04-03T02:21:03;7.30;99.90
12971;DHT22;6550;48.650;8.774;2023-04-03T02:23:30;7.30;99.90
12971;DHT22;6550;48.650;8.774;2023-04-03T02:26:11;8.30;99.90
12971;DHT22;6550;48.650;8.774;2023-04-03T02:28:38;7.30;99.90
12971;DHT22;6550;48.650;8.774;2023-04-03T02:31:06;7.30;99.90
12971;DHT22;6550;48.650;8.774;2023-04-03T02:33:34;7.20;99.90
12971;DHT22;6550;48.650;8.774;2023-04-03T02:36:06;7.20;99.90
12971;DHT22;6550;48.650;8.774;2023-04-03T02:38:35;7.20;99.90
12971;DHT22;6550;48.650;8.774;2023-04-03T02:41:07;7.20;99.90
12971;DHT22;6550;48.650;8.774;2023-04-03T02:43:35;7.10;99.90
12971;DHT22;6550;48.650;8.774;2023-04-03T02:46:05;7.10;99.90
12971;DHT22;6550;48.650;8.774;2023-04-03T02:48:31;7.10;99.90
12971;DHT22;6550;48.650;8.774;2023-04-03T02:51:01;6.90;99.90
12971;DHT22;6550;48.650;8.774;2023-04-03T02:53:30;7.00;99.90
12971;DHT22;6550;48.650;8.774;2023-04-03T02:55:59;7.00;99.90
12971;DHT22;6550;48.650;8.774;2023-04-03T02:58:25;7.00;99.90
12971;DHT22;6550;48.650;8.774;2023-04-03T03:00:54;7.00;99.90
12971;DHT22;6550;48.650;8.774;2023-04-03T03:03:24;7.00;99.90
12971;DHT22;6550;48.650;8.774;2023-04-03T03:06:01;6.90;99.90
12971;DHT22;6550;48.650;8.774;2023-04-03T03:08:27;7.00;99.90
12971;DHT22;6550;48.650;8.774;2023-04-03T03:10:56;6.90;99.90
12971;DHT22;6550;48.650;8.774;2023-04-03T03:13:26;6.90;99.90
12971;DHT22;6550;48.650;8.774;2023-04-03T03:15:52;7.40;99.90
12971;DHT22;6550;48.650;8.774;2023-04-03T03:18:22;6.90;99.90
12971;DHT22;6550;48.650;8.774;2023-04-03T03:20:56;6.90;99.90
12971;DHT22;6550;48.650;8.774;2023-04-03T03:23:25;6.90;99.90
12971;DHT22;6550;48.650;8.774;2023-04-03T03:26:00;6.90;99.90
12971;DHT22;6550;48.650;8.774;2023-04-03T03:28:31;6.90;99.90
12971;DHT22;6550;48.650;8.774;2023-04-03T03:31:01;6.90;99.90
12971;DHT22;6550;48.650;8.774;2023-04-03T03:33:28;6.80;99.90
12971;DHT22;6550;48.650;8.774;2023-04-03T03:35:59;6.80;99.90
12971;DHT22;6550;48.650;8.774;2023-04-03T03:38:26;6.80;99.90
12971;DHT22;6550;48.650;8.774;2023-04-03T03:40:58;6.80;99.90
12971;DHT22;6550;48.650;8.774;2023-04-03T03:43:24;6.80;99.90
12971;DHT22;6550;48.650;8.774;2023-04-03T03:45:52;6.80;99.90
12971;DHT22;6550;48.650;8.774;2023-04-03T03:48:24;6.80;99.90
12971;DHT22;6550;48.650;8.774;2023-04-03T03:50:50;7.00;99.90
12971;DHT22;6550;48.650;8.774;2023-04-03T03:53:17;6.80;99.90
12971;DHT22;6550;48.650;8.774;2023-04-03T03:55:44;6.80;99.90
12971;DHT22;6550;48.650;8.774;2023-04-03T03:58:14;6.70;99.90
12971;DHT22;6550;48.650;8.774;2023-04-03T04:00:43;6.70;99.90
12971;DHT22;6550;48.650;8.774;2023-04-03T04:03:12;6.80;99.90
12971;DHT22;6550;48.650;8.774;2023-04-03T04:05:41;6.90;99.90
12971;DHT22;6550;48.650;8.774;2023-04-03T04:08:11;6.70;99.90
12971;DHT22;6550;48.650;8.774;2023-04-03T04:10:38;6.80;99.90
12971;DHT22;6550;48.650;8.774;2023-04-03T04:13:04;6.70;99.90
12971;DHT22;6550;48.650;8.774;2023-04-03T04:15:31;6.70;99.90
12971;DHT22;6550;48.650;8.774;2023-04-03T04:18:01;6.70;99.90
12971;DHT22;6550;48.650;8.774;2023-04-03T04:23:00;6.70;99.90
12971;DHT22;6550;48.650;8.774;2023-04-03T04:25:26;6.70;99.90
12971;DHT22;6550;48.650;8.774;2023-04-03T04:28:00;6.70;99.90
12971;DHT22;6550;48.650;8.774;2023-04-03T04:30:27;6.70;99.90
12971;DHT22;6550;48.650;8.774;2023-04-03T04:32:54;6.70;99.90
12971;DHT22;6550;48.650;8.774;2023-04-03T04:35:21;6.70;99.90
12971;DHT22;6550;48.650;8.774;2023-04-03T04:37:48;7.20;99.90
12971;DHT22;6550;48.650;8.774;2023-04-03T04:40:19;7.90;99.90
12971;DHT22;6550;48.650;8.774;2023-04-03T04:42:46;6.70;99.90
12971;DHT22;6550;48.650;8.774;2023-04-03T04:45:13;6.70;99.90
12971;DHT22;6550;48.650;8.774;2023-04-03T04:47:41;6.70;99.90
12971;DHT22;6550;48.650;8.774;2023-04-03T04:50:08;6.70;99.90
12971;DHT22;6550;48.650;8.774;2023-04-03T04:52:35;6.70;99.90
12971;DHT22;6550;48.650;8.774;2023-04-03T04:55:03;6.70;99.90
12971;DHT22;6550;48.650;8.774;2023-04-03T04:57:32;6.60;99.90
12971;DHT22;6550;48.650;8.774;2023-04-03T05:00:01;6.80;99.90
12971;DHT22;6550;48.650;8.774;2023-04-03T05:02:31;6.60;99.90
12971;DHT22;6550;48.650;8.774;2023-04-03T05:04:58;6.60;99.90
12971;DHT22;6550;48.650;8.774;2023-04-03T05:07:25;6.90;99.90
12971;DHT22;6550;48.650;8.774;2023-04-03T05:09:54;6.60;99.90
12971;DHT22;6550;48.650;8.774;2023-04-03T05:12:21;6.60;99.90
12971;DHT22;6550;48.650;8.774;2023-04-03T05:14:48;6.60;99.90
12971;DHT22;6550;48.650;8.774;2023-04-03T05:17:22;6.70;99.90
12971;DHT22;6550;48.650;8.774;2023-04-03T05:19:49;6.60;99.90
12971;DHT22;6550;48.650;8.774;2023-04-03T05:22:16;6.60;99.90
12971;DHT22;6550;48.650;8.774;2023-04-03T05:24:45;6.60;99.90
12971;DHT22;6550;48.650;8.774;2023-04-03T05:27:14;6.70;99.90
12971;DHT22;6550;48.650;8.774;2023-04-03T05:29:43;6.70;99.90
12971;DHT22;6550;48.650;8.774;2023-04-03T05:32:11;6.70;99.90
12971;DHT22;6550;48.650;8.774;2023-04-03T05:34:38;6.70;99.90
12971;DHT22;6550;48.650;8.774;2023-04-03T05:37:09;7.20;99.90
12971;DHT22;6550;48.650;8.774;2023-04-03T05:39:38;6.70;99.90
12971;DHT22;6550;48.650;8.774;2023-04-03T05:42:10;6.70;99.90
12971;DHT22;6550;48.650;8.774;2023-04-03T05:44:38;6.70;99.90
12971;DHT22;6550;48.650;8.774;2023-04-03T05:47:05;6.60;99.90
12971;DHT22;6550;48.650;8.774;2023-04-03T05:49:34;6.70;99.90
12971;DHT22;6550;48.650;8.774;2023-04-03T05:52:03;6.80;99.90
12971;DHT22;6550;48.650;8.774;2023-04-03T05:54:30;6.80;99.90
12971;DHT22;6550;48.650;8.774;2023-04-03T05:56:59;6.80;99.90
12971;DHT22;6550;48.650;8.774;2023-04-03T05:59:28;6.80;99.90
12971;DHT22;6550;48.650;8.774;2023-04-03T06:01:57;7.80;99.90
12971;DHT22;6550;48.650;8.774;2023-04-03T06:04:26;8.50;99.90
12971;DHT22;6550;48.650;8.774;2023-04-03T06:06:59;6.90;99.90
12971;DHT22;6550;48.650;8.774;2023-04-03T06:09:27;7.00;99.90
12971;DHT22;6550;48.650;8.774;2023-04-03T06:14:25;7.10;99.90
12971;DHT22;6550;48.650;8.774;2023-04-03T06:16:53;7.00;99.90
12971;DHT22;6550;48.650;8.774;2023-04-03T06:19:22;7.60;99.90
12971;DHT22;6550;48.650;8.774;2023-04-03T06:21:54;7.20;99.90
12971;DHT22;6550;48.650;8.774;2023-04-03T06:24:21;7.30;99.90
12971;DHT22;6550;48.650;8.774;2023-04-03T06:26:51;7.40;99.90
12971;DHT22;6550;48.650;8.774;2023-04-03T06:29:21;7.50;99.90
12971;DHT22;6550;48.650;8.774;2023-04-03T06:31:52;7.60;99.90
12971;DHT22;6550;48.650;8.774;2023-04-03T06:34:19;9.40;99.90
12971;DHT22;6550;48.650;8.774;2023-04-03T06:36:49;7.70;99.90
12971;DHT22;6550;48.650;8.774;2023-04-03T06:39:19;7.70;99.90
12971;DHT22;6550;48.650;8.774;2023-04-03T06:41:49;7.60;99.90
12971;DHT22;6550;48.650;8.774;2023-04-03T06:44:17;7.70;99.90
12971;DHT22;6550;48.650;8.774;2023-04-03T06:46:44;7.70;99.90
12971;DHT22;6550;48.650;8.774;2023-04-03T06:49:13;7.70;99.90
12971;DHT22;6550;48.650;8.774;2023-04-03T06:51:39;7.80;99.90
12971;DHT22;6550;48.650;8.774;2023-04-03T06:54:06;8.10;99.90
12971;DHT22;6550;48.650;8.774;2023-04-03T06:56:37;8.00;99.90
12971;DHT22;6550;48.650;8.774;2023-04-03T06:59:04;8.00;99.90
12971;DHT22;6550;48.650;8.774;2023-04-03T07:01:33;8.10;99.90
12971;DHT22;6550;48.650;8.774;2023-04-03T07:04:02;8.20;99.90
12971;DHT22;6550;48.650;8.774;2023-04-03T07:06:31;8.30;99.90
12971;DHT22;6550;48.650;8.774;2023-04-03T07:09:00;8.40;99.90
12971;DHT22;6550;48.650;8.774;2023-04-03T07:11:27;9.20;99.90
12971;DHT22;6550;48.650;8.774;2023-04-03T07:13:57;8.60;99.50
12971;DHT22;6550;48.650;8.774;2023-04-03T07:16:24;8.80;99.20
12971;DHT22;6550;48.650;8.774;2023-04-03T07:18:53;8.80;99.30
12971;DHT22;6550;48.650;8.774;2023-04-03T07:21:20;8.90;99.30
12971;DHT22;6550;48.650;8.774;2023-04-03T07:23:47;9.10;99.10
12971;DHT22;6550;48.650;8.774;2023-04-03T07:26:14;9.10;98.70
12971;DHT22;6550;48.650;8.774;2023-04-03T07:28:41;9.20;98.00
12971;DHT22;6550;48.650;8.774;2023-04-03T07:31:11;9.80;97.90
12971;DHT22;6550;48.650;8.774;2023-04-03T07:33:41;9.30;97.50
12971;DHT22;6550;48.650;8.774;2023-04-03T07:36:11;9.40;97.30
12971;DHT22;6550;48.650;8.774;2023-04-03T07:38:40;9.50;97.00
12971;DHT22;6550;48.650;8.774;2023-04-03T07:41:14;9.70;97.30
12971;DHT22;6550;48.650;8.774;2023-04-03T07:43:42;9.80;98.00
12971;DHT22;6550;48.650;8.774;2023-04-03T07:46:09;9.90;97.50
12971;DHT22;6550;48.650;8.774;2023-04-03T07:48:36;10.00;96.80
12971;DHT22;6550;48.650;8.774;2023-04-03T07:51:05;10.10;96.70
12971;DHT22;6550;48.650;8.774;2023-04-03T07:53:32;10.30;96.50
12971;DHT22;6550;48.650;8.774;2023-04-03T07:56:01;10.40;96.60
12971;DHT22;6550;48.650;8.774;2023-04-03T07:58:29;10.60;95.50
12971;DHT22;6550;48.650;8.774;2023-04-03T08:00:59;10.60;95.80
12971;DHT22;6550;48.650;8.774;2023-04-03T08:03:26;10.90;95.50
12971;DHT22;6550;48.650;8.774;2023-04-03T08:06:00;11.00;95.20
12971;DHT22;6550;48.650;8.774;2023-04-03T08:08:28;11.10;95.00
12971;DHT22;6550;48.650;8.774;2023-04-03T08:10:59;11.10;94.90
12971;DHT22;6550;48.650;8.774;2023-04-03T08:13:30;11.30;93.80
12971;DHT22;6550;48.650;8.774;2023-04-03T08:15:57;11.40;94.30
12971;DHT22;6550;48.650;8.774;2023-04-03T08:18:26;11.50;94.00
12971;DHT22;6550;48.650;8.774;2023-04-03T08:20:53;11.70;93.80
12971;DHT22;6550;48.650;8.774;2023-04-03T08:23:22;11.70;93.10
12971;DHT22;6550;48.650;8.774;2023-04-03T08:25:51;12.20;92.90
12971;DHT22;6550;48.650;8.774;2023-04-03T08:28:20;12.00;93.40
12971;DHT22;6550;48.650;8.774;2023-04-03T08:30:46;12.20;93.60
12971;DHT22;6550;48.650;8.774;2023-04-03T08:33:13;12.00;92.40
12971;DHT22;6550;48.650;8.774;2023-04-03T08:35:41;12.00;92.00
12971;DHT22;6550;48.650;8.774;2023-04-03T08:38:09;12.10;92.20
12971;DHT22;6550;48.650;8.774;2023-04-03T08:40:37;12.30;91.70
12971;DHT22;6550;48.650;8.774;2023-04-03T08:43:22;12.30;91.30
12971;DHT22;6550;48.650;8.774;2023-04-03T08:45:57;12.30;91.20
12971;DHT22;6550;48.650;8.774;2023-04-03T08:48:37;12.40;90.90
12971;DHT22;6550;48.650;8.774;2023-04-03T08:51:16;12.40;91.00
12971;DHT22;6550;48.650;8.774;2023-04-03T08:53:58;12.30;91.20
12971;DHT22;6550;48.650;8.774;2023-04-03T08:56:26;12.30;90.80
12971;DHT22;6550;48.650;8.774;2023-04-03T08:58:58;12.30;90.80
12971;DHT22;6550;48.650;8.774;2023-04-03T09:01:33;12.30;90.80
12971;DHT22;6550;48.650;8.774;2023-04-03T09:04:11;12.50;90.80
12971;DHT22;6550;48.650;8.774;2023-04-03T09:06:39;12.60;90.80
12971;DHT22;6550;48.650;8.774;2023-04-03T09:22:46;12.70;82.00
12971;DHT22;6550;48.650;8.774;2023-04-03T09:25:42;12.20;82.80
12971;DHT22;6550;48.650;8.774;2023-04-03T09:30:39;12.50;85.30
12971;DHT22;6550;48.650;8.774;2023-04-03T09:33:08;12.60;85.00
12971;DHT22;6550;48.650;8.774;2023-04-03T09:35:41;12.70;85.50
12971;DHT22;6550;48.650;8.774;2023-04-03T09:38:17;12.80;86.30
12971;DHT22;6550;48.650;8.774;2023-04-03T09:41:13;13.40;86.00
12971;DHT22;6550;48.650;8.774;2023-04-03T09:43:52;13.00;84.80
12971;DHT22;6550;48.650;8.774;2023-04-03T09:46:30;13.10;85.20
12971;DHT22;6550;48.650;8.774;2023-04-03T09:49:02;13.00;85.50
12971;DHT22;6550;48.650;8.774;2023-04-03T09:51:32;12.80;85.30
12971;DHT22;6550;48.650;8.774;2023-04-03T09:53:59;13.10;85.60
12971;DHT22;6550;48.650;8.774;2023-04-03T09:56:28;13.10;86.00
12971;DHT22;6550;48.650;8.774;2023-04-03T10:06:37;12.70;87.60
12971;DHT22;6550;48.650;8.774;2023-04-03T10:09:17;12.70;86.60
12971;DHT22;6550;48.650;8.774;2023-04-03T10:12:10;12.60;86.50
12971;DHT22;6550;48.650;8.774;2023-04-03T10:15:01;12.50;86.90
12971;DHT22;6550;48.650;8.774;2023-04-03T10:17:41;12.40;87.10
12971;DHT22;6550;48.650;8.774;2023-04-03T10:22:45;12.30;87.80
12971;DHT22;6550;48.650;8.774;2023-04-03T10:33:24;12.00;89.00
12971;DHT22;6550;48.650;8.774;2023-04-03T10:52:45;12.20;88.00
12971;DHT22;6550;48.650;8.774;2023-04-03T10:57:47;12.70;86.90
12971;DHT22;6550;48.650;8.774;2023-04-03T11:00:21;12.70;86.70
12971;DHT22;6550;48.650;8.774;2023-04-03T11:02:56;12.90;86.90
12971;DHT22;6550;48.650;8.774;2023-04-03T11:05:37;13.00;85.90
12971;DHT22;6550;48.650;8.774;2023-04-03T11:11:19;13.40;84.60
12971;DHT22;6550;48.650;8.774;2023-04-03T11:13:58;14.30;84.40
12971;DHT22;6550;48.650;8.774;2023-04-03T11:16:30;13.90;83.40
12971;DHT22;6550;48.650;8.774;2023-04-03T11:21:44;13.80;83.40
12971;DHT22;6550;48.650;8.774;2023-04-03T11:24:22;13.80;83.10
12971;DHT22;6550;48.650;8.774;2023-04-03T11:26:55;13.70;83.50
12971;DHT22;6550;48.650;8.774;2023-04-03T11:29:26;13.80;83.10
12971;DHT22;6550;48.650;8.774;2023-04-03T11:34:44;14.30;81.70
12971;DHT22;6550;48.650;8.774;2023-04-03T11:40:31;14.60;80.80
12971;DHT22;6550;48.650;8.774;2023-04-03T11:45:27;14.30;82.20
12971;DHT22;6550;48.650;8.774;2023-04-03T11:48:06;14.60;82.20
12971;DHT22;6550;48.650;8.774;2023-04-03T11:50:51;13.90;81.70
12971;DHT22;6550;48.650;8.774;2023-04-03T11:53:36;13.80;82.50
12971;DHT22;6550;48.650;8.774;2023-04-03T12:01:55;14.90;92.90
12971;DHT22;6550;48.650;8.774;2023-04-03T12:04:25;15.50;92.50
12971;DHT22;6550;48.650;8.774;2023-04-03T12:07:16;16.30;91.80
12971;DHT22;6550;48.650;8.774;2023-04-03T12:12:33;16.20;87.60
12971;DHT22;6550;48.650;8.774;2023-04-03T12:15:49;15.70;86.20
12971;DHT22;6550;48.650;8.774;2023-04-03T12:18:44;15.80;85.60
12971;DHT22;6550;48.650;8.774;2023-04-03T12:21:20;15.60;86.50
12971;DHT22;6550;48.650;8.774;2023-04-03T12:26:27;16.00;85.10
12971;DHT22;6550;48.650;8.774;2023-04-03T12:34:50;15.60;84.70
12971;DHT22;6550;48.650;8.774;2023-04-03T12:46:42;14.90;86.90
12971;DHT22;6550;48.650;8.774;2023-04-03T12:48:52;14.70;88.40
12971;DHT22;6550;48.650;8.774;2023-04-03T12:51:34;15.30;87.50
12971;DHT22;6550;48.650;8.774;2023-04-03T12:54:19;14.50;88.10
12971;DHT22;6550;48.650;8.774;2023-04-03T12:56:46;14.60;86.40
12971;DHT22;6550;48.650;8.774;2023-04-03T13:01:54;15.00;87.00
12971;DHT22;6550;48.650;8.774;2023-04-03T13:04:21;15.20;87.00
12971;DHT22;6550;48.650;8.774;2023-04-03T13:06:49;15.50;86.50
12971;DHT22;6550;48.650;8.774;2023-04-03T13:09:25;16.50;86.80
12971;DHT22;6550;48.650;8.774;2023-04-03T13:12:01;15.70;86.30
12971;DHT22;6550;48.650;8.774;2023-04-03T13:14:34;15.70;86.40
12971;DHT22;6550;48.650;8.774;2023-04-03T13:17:13;15.70;86.20
12971;DHT22;6550;48.650;8.774;2023-04-03T13:19:47;15.60;85.50
12971;DHT22;6550;48.650;8.774;2023-04-03T13:25:02;15.40;86.30
12971;DHT22;6550;48.650;8.774;2023-04-03T13:27:32;15.30;87.80
12971;DHT22;6550;48.650;8.774;2023-04-03T13:30:00;15.30;87.40
12971;DHT22;6550;48.650;8.774;2023-04-03T13:32:31;15.40;86.50
12971;DHT22;6550;48.650;8.774;2023-04-03T13:34:59;15.40;86.40
12971;DHT22;6550;48.650;8.774;2023-04-03T13:37:54;15.40;86.10
12971;DHT22;6550;48.650;8.774;2023-04-03T13:40:21;15.50;83.80
12971;DHT22;6550;48.650;8.774;2023-04-03T13:43:02;15.60;84.30
12971;DHT22;6550;48.650;8.774;2023-04-03T13:45:33;15.70;84.20
12971;DHT22;6550;48.650;8.774;2023-04-03T13:48:19;15.80;83.70
12971;DHT22;6550;48.650;8.774;2023-04-03T13:50:59;16.00;82.80
12971;DHT22;6550;48.650;8.774;2023-04-03T13:53:29;16.10;81.60
12971;DHT22;6550;48.650;8.774;2023-04-03T13:58:30;15.90;81.40
12971;DHT22;6550;48.650;8.774;2023-04-03T14:03:33;15.50;82.50
12971;DHT22;6550;48.650;8.774;2023-04-03T14:06:06;16.10;82.40
12971;DHT22;6550;48.650;8.774;2023-04-03T14:08:35;15.70;81.90
12971;DHT22;6550;48.650;8.774;2023-04-03T14:11:17;15.70;82.80
12971;DHT22;6550;48.650;8.774;2023-04-03T14:13:47;15.80;83.20
12971;DHT22;6550;48.650;8.774;2023-04-03T14:16:17;15.90;83.30
12971;DHT22;6550;48.650;8.774;2023-04-03T14:18:46;16.20;82.30
12971;DHT22;6550;48.650;8.774;2023-04-03T14:21:14;16.00;81.60
12971;DHT22;6550;48.650;8.774;2023-04-03T14:23:42;16.20;83.60
12971;DHT22;6550;48.650;8.774;2023-04-03T14:26:23;16.30;83.00
12971;DHT22;6550;48.650;8.774;2023-04-03T14:28:51;16.40;82.80
12971;DHT22;6550;48.650;8.774;2023-04-03T14:31:20;16.30;81.80
12971;DHT22;6550;48.650;8.774;2023-04-03T14:33:47;16.00;81.70
12971;DHT22;6550;48.650;8.774;2023-04-03T14:36:24;15.90;82.60
12971;DHT22;6550;48.650;8.774;2023-04-03T14:38:53;15.10;81.70
12971;DHT22;6550;48.650;8.774;2023-04-03T14:41:22;15.60;83.00
12971;DHT22;6550;48.650;8.774;2023-04-03T14:43:53;15.10;82.60
12971;DHT22;6550;48.650;8.774;2023-04-03T14:46:32;15.40;82.90
12971;DHT22;6550;48.650;8.774;2023-04-03T14:49:22;15.50;85.20
12971;DHT22;6550;48.650;8.774;2023-04-03T14:51:50;15.30;83.40
12971;DHT22;6550;48.650;8.774;2023-04-03T14:54:19;15.20;83.50
12971;DHT22;6550;48.650;8.774;2023-04-03T14:56:52;16.00;83.40
12971;DHT22;6550;48.650;8.774;2023-04-03T14:59:19;15.20;83.00
12971;DHT22;6550;48.650;8.774;2023-04-03T15:01:48;15.90;84.20
12971;DHT22;6550;48.650;8.774;2023-04-03T15:04:18;15.20;81.90
12971;DHT22;6550;48.650;8.774;2023-04-03T15:06:48;15.70;84.10
12971;DHT22;6550;48.650;8.774;2023-04-03T15:14:13;14.90;81.30
12971;DHT22;6550;48.650;8.774;2023-04-03T15:16:52;14.90;82.80
12971;DHT22;6550;48.650;8.774;2023-04-03T15:19:18;15.50;83.50
12971;DHT22;6550;48.650;8.774;2023-04-03T15:21:47;15.10;84.50
12971;DHT22;6550;48.650;8.774;2023-04-03T15:24:14;14.80;84.40
12971;DHT22;6550;48.650;8.774;2023-04-03T15:26:41;15.00;85.90
12971;DHT22;6550;48.650;8.774;2023-04-03T15:29:10;14.90;83.60
12971;DHT22;6550;48.650;8.774;2023-04-03T15:31:36;14.90;83.50
12971;DHT22;6550;48.650;8.774;2023-04-03T15:34:03;14.90;86.30
12971;DHT22;6550;48.650;8.774;2023-04-03T15:36:30;14.70;84.70
12971;DHT22;6550;48.650;8.774;2023-04-03T15:39:00;14.60;83.10
12971;DHT22;6550;48.650;8.774;2023-04-03T15:41:27;14.50;83.60
12971;DHT22;6550;48.650;8.774;2023-04-03T15:43:53;14.40;84.50
12971;DHT22;6550;48.650;8.774;2023-04-03T15:46:20;14.40;85.60
12971;DHT22;6550;48.650;8.774;2023-04-03T15:48:47;14.20;80.90
12971;DHT22;6550;48.650;8.774;2023-04-03T15:51:16;14.10;84.60
12971;DHT22;6550;48.650;8.774;2023-04-03T15:53:42;14.20;86.70
12971;DHT22;6550;48.650;8.774;2023-04-03T15:56:09;14.30;85.90
12971;DHT22;6550;48.650;8.774;2023-04-03T15:58:38;14.60;84.50
12971;DHT22;6550;48.650;8.774;2023-04-03T16:01:09;14.90;83.30
12971;DHT22;6550;48.650;8.774;2023-04-03T16:03:40;15.10;82.30
12971;DHT22;6550;48.650;8.774;2023-04-03T16:06:13;14.60;79.90
12971;DHT22;6550;48.650;8.774;2023-04-03T16:08:41;14.90;79.80
12971;DHT22;6550;48.650;8.774;2023-04-03T16:11:13;15.70;80.70
12971;DHT22;6550;48.650;8.774;2023-04-03T16:13:44;14.40;78.60
12971;DHT22;6550;48.650;8.774;2023-04-03T16:16:11;14.10;78.80
12971;DHT22;6550;48.650;8.774;2023-04-03T16:18:38;13.90;78.80
12971;DHT22;6550;48.650;8.774;2023-04-03T16:21:06;13.80;78.30
12971;DHT22;6550;48.650;8.774;2023-04-03T16:23:37;13.80;78.70
12971;DHT22;6550;48.650;8.774;2023-04-03T16:26:06;13.60;79.80
12971;DHT22;6550;48.650;8.774;2023-04-03T16:28:35;13.40;78.90
12971;DHT22;6550;48.650;8.774;2023-04-03T16:31:02;13.30;79.10
12971;DHT22;6550;48.650;8.774;2023-04-03T16:33:29;13.10;79.10
12971;DHT22;6550;48.650;8.774;2023-04-03T16:35:56;13.00;78.80
12971;DHT22;6550;48.650;8.774;2023-04-03T16:38:25;13.00;79.00
12971;DHT22;6550;48.650;8.774;2023-04-03T16:40:52;12.80;79.00
12971;DHT22;6550;48.650;8.774;2023-04-03T16:43:25;12.90;79.90
12971;DHT22;6550;48.650;8.774;2023-04-03T16:45:52;13.10;79.30
12971;DHT22;6550;48.650;8.774;2023-04-03T16:48:20;13.10;79.20
12971;DHT22;6550;48.650;8.774;2023-04-03T16:50:49;13.00;78.90
12971;DHT22;6550;48.650;8.774;2023-04-03T16:53:23;12.90;79.20
12971;DHT22;6550;48.650;8.774;2023-04-03T16:55:53;12.50;79.30
12971;DHT22;6550;48.650;8.774;2023-04-03T16:58:20;12.60;78.60
12971;DHT22;6550;48.650;8.774;2023-04-03T17:00:50;12.50;78.80
12971;DHT22;6550;48.650;8.774;2023-04-03T17:03:17;12.30;79.20
12971;DHT22;6550;48.650;8.774;2023-04-03T17:05:47;13.20;79.70
12971;DHT22;6550;48.650;8.774;2023-04-03T17:08:17;12.00;80.20
12971;DHT22;6550;48.650;8.774;2023-04-03T17:10:46;11.70;78.90
12971;DHT22;6550;48.650;8.774;2023-04-03T17:13:16;11.80;80.40
12971;DHT22;6550;48.650;8.774;2023-04-03T17:15:43;11.80;81.00
12971;DHT22;6550;48.650;8.774;2023-04-03T17:20:39;11.50;80.60
12971;DHT22;6550;48.650;8.774;2023-04-03T17:23:06;11.50;81.50
12971;DHT22;6550;48.650;8.774;2023-04-03T17:25:34;11.40;81.30
12971;DHT22;6550;48.650;8.774;2023-04-03T17:28:03;11.20;81.50
12971;DHT22;6550;48.650;8.774;2023-04-03T17:30:30;11.20;82.10
12971;DHT22;6550;48.650;8.774;2023-04-03T17:32:57;10.90;80.80
12971;DHT22;6550;48.650;8.774;2023-04-03T17:35:23;11.00;82.10
12971;DHT22;6550;48.650;8.774;2023-04-03T17:37:50;10.90;81.60
12971;DHT22;6550;48.650;8.774;2023-04-03T17:40:20;10.80;82.60
12971;DHT22;6550;48.650;8.774;2023-04-03T17:42:49;10.60;82.30
12971;DHT22;6550;48.650;8.774;2023-04-03T17:45:17;10.70;83.10
12971;DHT22;6550;48.650;8.774;2023-04-03T17:47:43;10.60;84.10
12971;DHT22;6550;48.650;8.774;2023-04-03T17:50:12;10.50;84.40
12971;DHT22;6550;48.650;8.774;2023-04-03T17:52:41;10.50;84.60
12971;DHT22;6550;48.650;8.774;2023-04-03T17:55:08;10.30;84.70
12971;DHT22;6550;48.650;8.774;2023-04-03T17:57:37;10.60;85.50
12971;DHT22;6550;48.650;8.774;2023-04-03T18:00:04;10.30;85.80
12971;DHT22;6550;48.650;8.774;2023-04-03T18:02:32;10.20;85.80
12971;DHT22;6550;48.650;8.774;2023-04-03T18:04:59;10.10;86.60
12971;DHT22;6550;48.650;8.774;2023-04-03T18:07:26;9.90;84.30
12971;DHT22;6550;48.650;8.774;2023-04-03T18:09:54;10.00;86.20
12971;DHT22;6550;48.650;8.774;2023-04-03T18:12:21;10.70;86.40